ENBS

Båtsfjord Airport

Båtsfjord, Norway
METAR ENBS 182150Z 16013KT 9999 SCT012 BKN016 M05/M08 Q1010
Observed Flight Rules
Jan-18 @ 21:50 UTC (6 hours ago) Marginal Visual Flight Rules
Wind Visibility Clouds
160° at 13 knots 10,000+ meters
  • Scattered at 1,200' AGL
  • Broken at 1,600' AGL
Temperatures Readings
Current -5°C / 23°F
Dewpoint -8°C / 18°F
Humidity 80%
Altimeter 29.82" Hg
Pressure 1010 hPa
Elevation 10
METAR ENBS 182150Z 16013KT 9999 SCT012 BKN016 M05/M08 Q1010
Observed Flight Rules
Jan-18 @ 21:50 UTC
(6 hours ago)
MVFR
Wind Visibility
160° at 13 knots 10,000+ meters
Clouds
  • Scattered at 1,200' AGL
  • Broken at 1,600' AGL
Temperature Dewpoint
-5°C / 23°F -8°C / 18°F
Humidity Altimeter Pressure
80% 29.82" Hg 1010 hPa